sensor_id;sensor_type;location;lat;lon;timestamp;P1;durP1;ratioP1;P2;durP2;ratioP2
65230;SDS011;51813;40.666;16.602;2023-08-17T00:00:08;11.57;;;10.38;;
65230;SDS011;51813;40.666;16.602;2023-08-17T00:02:35;11.45;;;10.35;;
65230;SDS011;51813;40.666;16.602;2023-08-17T00:05:01;10.57;;;9.52;;
65230;SDS011;51813;40.666;16.602;2023-08-17T00:07:26;11.30;;;10.10;;
65230;SDS011;51813;40.666;16.602;2023-08-17T00:09:52;11.35;;;10.15;;
65230;SDS011;51813;40.666;16.602;2023-08-17T00:12:18;10.70;;;9.65;;
65230;SDS011;51813;40.666;16.602;2023-08-17T00:14:44;14.52;;;10.02;;
65230;SDS011;51813;40.666;16.602;2023-08-17T00:17:09;10.60;;;9.50;;
65230;SDS011;51813;40.666;16.602;2023-08-17T00:19:35;11.55;;;10.35;;
65230;SDS011;51813;40.666;16.602;2023-08-17T00:22:01;10.95;;;9.85;;
65230;SDS011;51813;40.666;16.602;2023-08-17T00:24:26;11.23;;;9.93;;
65230;SDS011;51813;40.666;16.602;2023-08-17T00:26:52;10.35;;;9.35;;
65230;SDS011;51813;40.666;16.602;2023-08-17T00:29:18;10.68;;;9.57;;
65230;SDS011;51813;40.666;16.602;2023-08-17T00:31:43;10.60;;;9.25;;
65230;SDS011;51813;40.666;16.602;2023-08-17T00:34:09;11.20;;;10.05;;
65230;SDS011;51813;40.666;16.602;2023-08-17T00:36:35;10.93;;;9.73;;
65230;SDS011;51813;40.666;16.602;2023-08-17T00:39:00;10.27;;;9.27;;
65230;SDS011;51813;40.666;16.602;2023-08-17T00:41:26;10.00;;;9.00;;
65230;SDS011;51813;40.666;16.602;2023-08-17T00:43:53;10.35;;;9.30;;
65230;SDS011;51813;40.666;16.602;2023-08-17T00:46:19;10.50;;;9.43;;
65230;SDS011;51813;40.666;16.602;2023-08-17T00:48:48;10.75;;;9.65;;
65230;SDS011;51813;40.666;16.602;2023-08-17T00:51:13;10.13;;;9.00;;
65230;SDS011;51813;40.666;16.602;2023-08-17T00:53:40;10.50;;;9.40;;
65230;SDS011;51813;40.666;16.602;2023-08-17T00:56:06;10.73;;;9.63;;
65230;SDS011;51813;40.666;16.602;2023-08-17T00:58:33;11.63;;;9.15;;
65230;SDS011;51813;40.666;16.602;2023-08-17T01:00:59;10.70;;;9.00;;
65230;SDS011;51813;40.666;16.602;2023-08-17T01:03:27;10.07;;;8.95;;
65230;SDS011;51813;40.666;16.602;2023-08-17T01:05:55;10.20;;;9.15;;
65230;SDS011;51813;40.666;16.602;2023-08-17T01:08:21;10.23;;;8.43;;
65230;SDS011;51813;40.666;16.602;2023-08-17T01:10:52;10.77;;;8.90;;
65230;SDS011;51813;40.666;16.602;2023-08-17T01:13:47;10.18;;;9.00;;
65230;SDS011;51813;40.666;16.602;2023-08-17T01:16:47;9.50;;;8.57;;
65230;SDS011;51813;40.666;16.602;2023-08-17T01:21:51;8.75;;;7.95;;
65230;SDS011;51813;40.666;16.602;2023-08-17T01:24:24;8.52;;;7.63;;
65230;SDS011;51813;40.666;16.602;2023-08-17T01:26:50;10.32;;;8.52;;
65230;SDS011;51813;40.666;16.602;2023-08-17T01:29:15;8.65;;;7.78;;
65230;SDS011;51813;40.666;16.602;2023-08-17T01:31:50;8.68;;;7.78;;
65230;SDS011;51813;40.666;16.602;2023-08-17T01:34:21;8.60;;;7.70;;
65230;SDS011;51813;40.666;16.602;2023-08-17T01:36:58;8.82;;;7.93;;
65230;SDS011;51813;40.666;16.602;2023-08-17T01:39:27;9.00;;;8.10;;
65230;SDS011;51813;40.666;16.602;2023-08-17T01:42:16;9.02;;;7.85;;
65230;SDS011;51813;40.666;16.602;2023-08-17T01:44:42;9.35;;;8.45;;
65230;SDS011;51813;40.666;16.602;2023-08-17T01:47:08;8.95;;;8.05;;
65230;SDS011;51813;40.666;16.602;2023-08-17T01:49:34;8.43;;;7.53;;
65230;SDS011;51813;40.666;16.602;2023-08-17T01:52:00;8.98;;;8.13;;
65230;SDS011;51813;40.666;16.602;2023-08-17T01:54:26;9.07;;;7.85;;
65230;SDS011;51813;40.666;16.602;2023-08-17T01:56:51;9.98;;;8.27;;
65230;SDS011;51813;40.666;16.602;2023-08-17T01:59:17;9.07;;;8.18;;
65230;SDS011;51813;40.666;16.602;2023-08-17T02:01:43;9.52;;;8.48;;
65230;SDS011;51813;40.666;16.602;2023-08-17T02:04:08;8.93;;;8.02;;
65230;SDS011;51813;40.666;16.602;2023-08-17T02:06:34;9.20;;;8.30;;
65230;SDS011;51813;40.666;16.602;2023-08-17T02:09:00;9.23;;;8.32;;
65230;SDS011;51813;40.666;16.602;2023-08-17T02:11:25;10.55;;;8.82;;
65230;SDS011;51813;40.666;16.602;2023-08-17T02:13:52;9.30;;;8.30;;
65230;SDS011;51813;40.666;16.602;2023-08-17T02:16:17;8.85;;;7.95;;
65230;SDS011;51813;40.666;16.602;2023-08-17T02:18:43;9.23;;;8.23;;
65230;SDS011;51813;40.666;16.602;2023-08-17T02:21:09;9.60;;;8.60;;
65230;SDS011;51813;40.666;16.602;2023-08-17T02:23:34;9.98;;;8.45;;
65230;SDS011;51813;40.666;16.602;2023-08-17T02:26:00;10.40;;;9.20;;
65230;SDS011;51813;40.666;16.602;2023-08-17T02:28:26;9.50;;;8.55;;
65230;SDS011;51813;40.666;16.602;2023-08-17T02:30:55;9.70;;;8.80;;
65230;SDS011;51813;40.666;16.602;2023-08-17T02:33:22;9.77;;;8.77;;
65230;SDS011;51813;40.666;16.602;2023-08-17T02:35:51;10.35;;;8.73;;
65230;SDS011;51813;40.666;16.602;2023-08-17T02:38:17;9.60;;;8.60;;
65230;SDS011;51813;40.666;16.602;2023-08-17T02:40:43;11.77;;;9.35;;
65230;SDS011;51813;40.666;16.602;2023-08-17T02:43:08;9.20;;;8.30;;
65230;SDS011;51813;40.666;16.602;2023-08-17T02:45:34;10.38;;;9.25;;
65230;SDS011;51813;40.666;16.602;2023-08-17T02:48:00;10.60;;;9.52;;
65230;SDS011;51813;40.666;16.602;2023-08-17T02:50:26;9.90;;;8.90;;
65230;SDS011;51813;40.666;16.602;2023-08-17T02:52:52;10.50;;;9.40;;
65230;SDS011;51813;40.666;16.602;2023-08-17T02:55:18;10.48;;;9.48;;
65230;SDS011;51813;40.666;16.602;2023-08-17T02:57:43;9.77;;;8.88;;
65230;SDS011;51813;40.666;16.602;2023-08-17T03:00:09;10.38;;;9.27;;
65230;SDS011;51813;40.666;16.602;2023-08-17T03:02:35;10.48;;;9.48;;
65230;SDS011;51813;40.666;16.602;2023-08-17T03:05:01;9.80;;;8.80;;
65230;SDS011;51813;40.666;16.602;2023-08-17T03:07:28;10.48;;;9.40;;
65230;SDS011;51813;40.666;16.602;2023-08-17T03:09:53;9.55;;;8.57;;
65230;SDS011;51813;40.666;16.602;2023-08-17T03:12:19;10.38;;;9.38;;
65230;SDS011;51813;40.666;16.602;2023-08-17T03:14:45;10.05;;;9.05;;
65230;SDS011;51813;40.666;16.602;2023-08-17T03:17:11;9.90;;;8.65;;
65230;SDS011;51813;40.666;16.602;2023-08-17T03:19:36;9.55;;;8.55;;
65230;SDS011;51813;40.666;16.602;2023-08-17T03:22:02;9.35;;;8.35;;
65230;SDS011;51813;40.666;16.602;2023-08-17T03:24:28;10.10;;;8.63;;
65230;SDS011;51813;40.666;16.602;2023-08-17T03:26:54;11.02;;;9.32;;
65230;SDS011;51813;40.666;16.602;2023-08-17T03:29:19;9.82;;;8.52;;
65230;SDS011;51813;40.666;16.602;2023-08-17T03:31:45;10.35;;;9.23;;
65230;SDS011;51813;40.666;16.602;2023-08-17T03:34:11;10.15;;;9.15;;
65230;SDS011;51813;40.666;16.602;2023-08-17T03:36:36;11.27;;;9.40;;
65230;SDS011;51813;40.666;16.602;2023-08-17T03:39:02;10.38;;;9.27;;
65230;SDS011;51813;40.666;16.602;2023-08-17T03:41:28;10.63;;;9.52;;
65230;SDS011;51813;40.666;16.602;2023-08-17T03:43:55;10.75;;;9.30;;
65230;SDS011;51813;40.666;16.602;2023-08-17T03:46:20;10.80;;;9.63;;
65230;SDS011;51813;40.666;16.602;2023-08-17T03:48:46;10.40;;;9.25;;
65230;SDS011;51813;40.666;16.602;2023-08-17T03:51:12;10.60;;;9.50;;
65230;SDS011;51813;40.666;16.602;2023-08-17T03:53:38;10.68;;;9.60;;
65230;SDS011;51813;40.666;16.602;2023-08-17T03:56:03;11.13;;;10.02;;
65230;SDS011;51813;40.666;16.602;2023-08-17T03:58:29;10.40;;;9.32;;
65230;SDS011;51813;40.666;16.602;2023-08-17T04:00:59;12.25;;;10.93;;
65230;SDS011;51813;40.666;16.602;2023-08-17T04:03:25;11.60;;;10.43;;
65230;SDS011;51813;40.666;16.602;2023-08-17T04:05:50;11.52;;;10.32;;
65230;SDS011;51813;40.666;16.602;2023-08-17T04:08:16;11.40;;;10.18;;
65230;SDS011;51813;40.666;16.602;2023-08-17T04:10:42;11.52;;;10.32;;
65230;SDS011;51813;40.666;16.602;2023-08-17T04:13:07;11.30;;;10.10;;
65230;SDS011;51813;40.666;16.602;2023-08-17T04:15:33;11.20;;;9.65;;
65230;SDS011;51813;40.666;16.602;2023-08-17T04:17:59;11.15;;;9.98;;
65230;SDS011;51813;40.666;16.602;2023-08-17T04:20:24;11.63;;;10.43;;
65230;SDS011;51813;40.666;16.602;2023-08-17T04:22:50;12.00;;;10.80;;
65230;SDS011;51813;40.666;16.602;2023-08-17T04:25:16;10.88;;;9.70;;
65230;SDS011;51813;40.666;16.602;2023-08-17T04:27:42;12.02;;;10.70;;
65230;SDS011;51813;40.666;16.602;2023-08-17T04:30:08;12.18;;;10.82;;
65230;SDS011;51813;40.666;16.602;2023-08-17T04:32:34;12.23;;;11.02;;
65230;SDS011;51813;40.666;16.602;2023-08-17T04:35:00;11.52;;;10.32;;
65230;SDS011;51813;40.666;16.602;2023-08-17T04:37:26;12.52;;;11.13;;
65230;SDS011;51813;40.666;16.602;2023-08-17T04:39:52;12.95;;;11.00;;
65230;SDS011;51813;40.666;16.602;2023-08-17T04:42:18;12.70;;;11.38;;
65230;SDS011;51813;40.666;16.602;2023-08-17T04:44:45;12.80;;;11.52;;
65230;SDS011;51813;40.666;16.602;2023-08-17T04:47:11;12.40;;;11.20;;
65230;SDS011;51813;40.666;16.602;2023-08-17T04:49:36;12.10;;;10.90;;
65230;SDS011;51813;40.666;16.602;2023-08-17T04:52:02;11.93;;;10.73;;
65230;SDS011;51813;40.666;16.602;2023-08-17T04:54:28;12.10;;;10.90;;
65230;SDS011;51813;40.666;16.602;2023-08-17T04:56:54;12.48;;;11.27;;
65230;SDS011;51813;40.666;16.602;2023-08-17T04:59:20;11.75;;;10.55;;
65230;SDS011;51813;40.666;16.602;2023-08-17T05:01:45;11.40;;;10.30;;
65230;SDS011;51813;40.666;16.602;2023-08-17T05:04:11;12.07;;;10.88;;
65230;SDS011;51813;40.666;16.602;2023-08-17T05:06:36;11.85;;;10.75;;
65230;SDS011;51813;40.666;16.602;2023-08-17T05:09:03;11.90;;;10.70;;
65230;SDS011;51813;40.666;16.602;2023-08-17T05:11:30;11.90;;;10.70;;
65230;SDS011;51813;40.666;16.602;2023-08-17T05:13:56;11.23;;;10.20;;
65230;SDS011;51813;40.666;16.602;2023-08-17T05:16:22;12.52;;;11.23;;
65230;SDS011;51813;40.666;16.602;2023-08-17T05:18:47;12.57;;;11.27;;
65230;SDS011;51813;40.666;16.602;2023-08-17T05:21:13;11.48;;;10.38;;
65230;SDS011;51813;40.666;16.602;2023-08-17T05:23:39;11.85;;;10.68;;
65230;SDS011;51813;40.666;16.602;2023-08-17T05:26:04;11.88;;;10.65;;
65230;SDS011;51813;40.666;16.602;2023-08-17T05:28:30;12.20;;;10.80;;
65230;SDS011;51813;40.666;16.602;2023-08-17T05:30:56;12.00;;;10.80;;
65230;SDS011;51813;40.666;16.602;2023-08-17T05:33:27;11.48;;;10.38;;
65230;SDS011;51813;40.666;16.602;2023-08-17T05:35:53;11.60;;;10.50;;
65230;SDS011;51813;40.666;16.602;2023-08-17T05:38:19;12.02;;;10.82;;
65230;SDS011;51813;40.666;16.602;2023-08-17T05:40:45;12.00;;;10.80;;
65230;SDS011;51813;40.666;16.602;2023-08-17T05:43:11;11.85;;;10.75;;
65230;SDS011;51813;40.666;16.602;2023-08-17T05:45:36;12.05;;;10.85;;
65230;SDS011;51813;40.666;16.602;2023-08-17T05:48:02;12.13;;;10.68;;
65230;SDS011;51813;40.666;16.602;2023-08-17T05:50:28;11.32;;;10.23;;
65230;SDS011;51813;40.666;16.602;2023-08-17T05:52:55;11.82;;;10.00;;
65230;SDS011;51813;40.666;16.602;2023-08-17T05:55:21;11.45;;;10.25;;
65230;SDS011;51813;40.666;16.602;2023-08-17T05:57:47;11.10;;;10.00;;
65230;SDS011;51813;40.666;16.602;2023-08-17T06:00:12;11.60;;;10.43;;
65230;SDS011;51813;40.666;16.602;2023-08-17T06:02:39;11.30;;;10.10;;
65230;SDS011;51813;40.666;16.602;2023-08-17T06:05:05;11.48;;;10.27;;
65230;SDS011;51813;40.666;16.602;2023-08-17T06:07:31;11.07;;;9.98;;
65230;SDS011;51813;40.666;16.602;2023-08-17T06:09:56;10.70;;;9.60;;
65230;SDS011;51813;40.666;16.602;2023-08-17T06:12:22;10.90;;;9.80;;
65230;SDS011;51813;40.666;16.602;2023-08-17T06:14:48;11.10;;;10.00;;
65230;SDS011;51813;40.666;16.602;2023-08-17T06:17:13;10.65;;;9.55;;
65230;SDS011;51813;40.666;16.602;2023-08-17T06:19:39;10.57;;;9.40;;
65230;SDS011;51813;40.666;16.602;2023-08-17T06:22:05;10.48;;;9.48;;
65230;SDS011;51813;40.666;16.602;2023-08-17T06:24:30;10.48;;;9.48;;
65230;SDS011;51813;40.666;16.602;2023-08-17T06:26:56;11.27;;;9.70;;
65230;SDS011;51813;40.666;16.602;2023-08-17T06:29:22;10.52;;;9.43;;
65230;SDS011;51813;40.666;16.602;2023-08-17T06:31:47;11.23;;;10.02;;
65230;SDS011;51813;40.666;16.602;2023-08-17T06:34:13;10.18;;;9.07;;
65230;SDS011;51813;40.666;16.602;2023-08-17T06:36:40;10.77;;;9.68;;
65230;SDS011;51813;40.666;16.602;2023-08-17T06:39:05;10.40;;;9.38;;
65230;SDS011;51813;40.666;16.602;2023-08-17T06:41:31;10.27;;;9.18;;
65230;SDS011;51813;40.666;16.602;2023-08-17T06:43:57;10.68;;;9.35;;
65230;SDS011;51813;40.666;16.602;2023-08-17T06:46:23;10.55;;;8.63;;
65230;SDS011;51813;40.666;16.602;2023-08-17T06:48:49;10.50;;;9.38;;
65230;SDS011;51813;40.666;16.602;2023-08-17T06:51:15;10.20;;;9.18;;
65230;SDS011;51813;40.666;16.602;2023-08-17T06:53:41;10.40;;;9.05;;
65230;SDS011;51813;40.666;16.602;2023-08-17T06:56:07;9.98;;;8.75;;
65230;SDS011;51813;40.666;16.602;2023-08-17T06:58:34;10.27;;;9.07;;
65230;SDS011;51813;40.666;16.602;2023-08-17T07:01:00;10.65;;;8.73;;
65230;SDS011;51813;40.666;16.602;2023-08-17T07:03:26;10.15;;;8.50;;
65230;SDS011;51813;40.666;16.602;2023-08-17T07:05:52;10.68;;;9.23;;
65230;SDS011;51813;40.666;16.602;2023-08-17T07:08:17;11.60;;;9.25;;
65230;SDS011;51813;40.666;16.602;2023-08-17T07:10:43;10.80;;;9.55;;
65230;SDS011;51813;40.666;16.602;2023-08-17T07:13:09;10.40;;;9.35;;
65230;SDS011;51813;40.666;16.602;2023-08-17T07:15:35;10.18;;;9.07;;
65230;SDS011;51813;40.666;16.602;2023-08-17T07:18:01;11.25;;;8.68;;
65230;SDS011;51813;40.666;16.602;2023-08-17T07:20:27;9.98;;;8.98;;
65230;SDS011;51813;40.666;16.602;2023-08-17T07:22:52;10.57;;;9.20;;
65230;SDS011;51813;40.666;16.602;2023-08-17T07:25:18;10.30;;;9.23;;
65230;SDS011;51813;40.666;16.602;2023-08-17T07:27:44;10.00;;;8.52;;
65230;SDS011;51813;40.666;16.602;2023-08-17T07:30:10;10.13;;;8.55;;
65230;SDS011;51813;40.666;16.602;2023-08-17T07:32:36;9.85;;;8.05;;
65230;SDS011;51813;40.666;16.602;2023-08-17T07:35:02;8.57;;;7.68;;
65230;SDS011;51813;40.666;16.602;2023-08-17T07:37:28;8.95;;;7.97;;
65230;SDS011;51813;40.666;16.602;2023-08-17T07:39:58;9.75;;;7.57;;
65230;SDS011;51813;40.666;16.602;2023-08-17T07:42:24;7.93;;;7.13;;
65230;SDS011;51813;40.666;16.602;2023-08-17T07:44:49;10.13;;;7.65;;
65230;SDS011;51813;40.666;16.602;2023-08-17T07:47:15;9.07;;;7.65;;
65230;SDS011;51813;40.666;16.602;2023-08-17T07:49:41;9.57;;;8.40;;
65230;SDS011;51813;40.666;16.602;2023-08-17T07:52:06;8.65;;;7.75;;
65230;SDS011;51813;40.666;16.602;2023-08-17T07:54:32;9.20;;;8.20;;
65230;SDS011;51813;40.666;16.602;2023-08-17T07:56:58;9.25;;;8.27;;
65230;SDS011;51813;40.666;16.602;2023-08-17T07:59:24;9.10;;;7.32;;
65230;SDS011;51813;40.666;16.602;2023-08-17T08:01:50;8.45;;;7.07;;
65230;SDS011;51813;40.666;16.602;2023-08-17T08:04:16;8.00;;;7.20;;
65230;SDS011;51813;40.666;16.602;2023-08-17T08:06:41;8.98;;;7.80;;
65230;SDS011;51813;40.666;16.602;2023-08-17T08:09:07;9.73;;;7.88;;
65230;SDS011;51813;40.666;16.602;2023-08-17T08:11:33;8.65;;;7.30;;
65230;SDS011;51813;40.666;16.602;2023-08-17T08:13:59;8.85;;;7.80;;
65230;SDS011;51813;40.666;16.602;2023-08-17T08:16:25;9.18;;;7.50;;
65230;SDS011;51813;40.666;16.602;2023-08-17T08:18:51;9.40;;;7.70;;
65230;SDS011;51813;40.666;16.602;2023-08-17T08:21:17;10.10;;;7.80;;
65230;SDS011;51813;40.666;16.602;2023-08-17T08:23:42;8.80;;;7.90;;
65230;SDS011;51813;40.666;16.602;2023-08-17T08:26:08;9.27;;;8.23;;
65230;SDS011;51813;40.666;16.602;2023-08-17T08:28:34;9.50;;;7.47;;
65230;SDS011;51813;40.666;16.602;2023-08-17T08:31:03;9.05;;;7.80;;
65230;SDS011;51813;40.666;16.602;2023-08-17T08:33:29;9.55;;;7.63;;
65230;SDS011;51813;40.666;16.602;2023-08-17T08:35:55;9.85;;;7.20;;
65230;SDS011;51813;40.666;16.602;2023-08-17T08:38:21;8.30;;;7.47;;
65230;SDS011;51813;40.666;16.602;2023-08-17T08:40:47;8.32;;;7.22;;
65230;SDS011;51813;40.666;16.602;2023-08-17T08:43:16;9.38;;;7.60;;
65230;SDS011;51813;40.666;16.602;2023-08-17T08:45:43;8.30;;;7.50;;
65230;SDS011;51813;40.666;16.602;2023-08-17T08:48:11;8.43;;;7.40;;
65230;SDS011;51813;40.666;16.602;2023-08-17T08:50:39;8.60;;;7.70;;
65230;SDS011;51813;40.666;16.602;2023-08-17T08:53:13;8.10;;;7.30;;
65230;SDS011;51813;40.666;16.602;2023-08-17T08:55:42;8.32;;;7.28;;
65230;SDS011;51813;40.666;16.602;2023-08-17T08:58:13;9.90;;;7.80;;
65230;SDS011;51813;40.666;16.602;2023-08-17T09:00:41;10.13;;;7.45;;
65230;SDS011;51813;40.666;16.602;2023-08-17T09:03:07;8.40;;;7.57;;
65230;SDS011;51813;40.666;16.602;2023-08-17T09:05:34;8.63;;;7.72;;
65230;SDS011;51813;40.666;16.602;2023-08-17T09:08:01;8.65;;;7.85;;
65230;SDS011;51813;40.666;16.602;2023-08-17T09:10:28;9.00;;;7.57;;
65230;SDS011;51813;40.666;16.602;2023-08-17T09:12:54;9.85;;;7.80;;
65230;SDS011;51813;40.666;16.602;2023-08-17T09:15:19;9.68;;;8.27;;
65230;SDS011;51813;40.666;16.602;2023-08-17T09:17:45;8.52;;;7.38;;
65230;SDS011;51813;40.666;16.602;2023-08-17T09:20:17;8.68;;;7.78;;
65230;SDS011;51813;40.666;16.602;2023-08-17T09:23:04;8.00;;;7.15;;
65230;SDS011;51813;40.666;16.602;2023-08-17T09:25:38;9.85;;;7.45;;
65230;SDS011;51813;40.666;16.602;2023-08-17T09:28:08;9.02;;;7.97;;
65230;SDS011;51813;40.666;16.602;2023-08-17T09:33:31;9.25;;;8.18;;
65230;SDS011;51813;40.666;16.602;2023-08-17T09:35:58;10.32;;;8.70;;
65230;SDS011;51813;40.666;16.602;2023-08-17T09:38:24;8.73;;;7.82;;
65230;SDS011;51813;40.666;16.602;2023-08-17T09:40:51;10.07;;;7.90;;
65230;SDS011;51813;40.666;16.602;2023-08-17T09:43:17;7.57;;;6.80;;
65230;SDS011;51813;40.666;16.602;2023-08-17T09:45:44;8.35;;;7.55;;
65230;SDS011;51813;40.666;16.602;2023-08-17T09:48:17;11.05;;;8.02;;
65230;SDS011;51813;40.666;16.602;2023-08-17T09:50:44;9.55;;;7.75;;
65230;SDS011;51813;40.666;16.602;2023-08-17T09:53:15;8.70;;;7.88;;
65230;SDS011;51813;40.666;16.602;2023-08-17T09:55:42;8.85;;;7.95;;
65230;SDS011;51813;40.666;16.602;2023-08-17T09:58:09;8.40;;;7.47;;
65230;SDS011;51813;40.666;16.602;2023-08-17T10:03:15;8.45;;;7.57;;
65230;SDS011;51813;40.666;16.602;2023-08-17T10:05:43;8.82;;;7.93;;
65230;SDS011;51813;40.666;16.602;2023-08-17T10:08:11;9.63;;;7.35;;
65230;SDS011;51813;40.666;16.602;2023-08-17T10:10:43;8.38;;;7.22;;
65230;SDS011;51813;40.666;16.602;2023-08-17T10:13:10;10.07;;;7.43;;
65230;SDS011;51813;40.666;16.602;2023-08-17T10:15:41;8.13;;;6.88;;
65230;SDS011;51813;40.666;16.602;2023-08-17T10:18:17;9.75;;;7.30;;
65230;SDS011;51813;40.666;16.602;2023-08-17T10:21:05;8.23;;;7.18;;
65230;SDS011;51813;40.666;16.602;2023-08-17T10:23:35;9.05;;;7.32;;
65230;SDS011;51813;40.666;16.602;2023-08-17T10:26:02;9.35;;;7.22;;
65230;SDS011;51813;40.666;16.602;2023-08-17T10:28:28;11.45;;;7.30;;
65230;SDS011;51813;40.666;16.602;2023-08-17T10:30:56;8.27;;;7.05;;
65230;SDS011;51813;40.666;16.602;2023-08-17T10:33:22;8.57;;;7.38;;
65230;SDS011;51813;40.666;16.602;2023-08-17T10:35:49;8.35;;;7.00;;
65230;SDS011;51813;40.666;16.602;2023-08-17T10:38:15;8.32;;;7.38;;
65230;SDS011;51813;40.666;16.602;2023-08-17T10:40:42;7.90;;;7.10;;
65230;SDS011;51813;40.666;16.602;2023-08-17T10:43:08;8.40;;;7.50;;
65230;SDS011;51813;40.666;16.602;2023-08-17T10:45:34;8.23;;;7.22;;
65230;SDS011;51813;40.666;16.602;2023-08-17T10:50:30;10.05;;;6.80;;
65230;SDS011;51813;40.666;16.602;2023-08-17T10:52:57;7.78;;;6.63;;
65230;SDS011;51813;40.666;16.602;2023-08-17T10:55:35;8.52;;;7.35;;
65230;SDS011;51813;40.666;16.602;2023-08-17T10:58:02;9.98;;;7.82;;
65230;SDS011;51813;40.666;16.602;2023-08-17T11:00:31;8.52;;;7.25;;
65230;SDS011;51813;40.666;16.602;2023-08-17T11:03:04;8.43;;;7.47;;
65230;SDS011;51813;40.666;16.602;2023-08-17T11:08:03;8.55;;;7.05;;
65230;SDS011;51813;40.666;16.602;2023-08-17T11:10:30;7.97;;;7.03;;
65230;SDS011;51813;40.666;16.602;2023-08-17T11:12:56;8.32;;;7.53;;
65230;SDS011;51813;40.666;16.602;2023-08-17T11:15:30;8.88;;;7.60;;
65230;SDS011;51813;40.666;16.602;2023-08-17T11:18:05;8.27;;;7.38;;
65230;SDS011;51813;40.666;16.602;2023-08-17T11:20:31;8.60;;;7.57;;
65230;SDS011;51813;40.666;16.602;2023-08-17T11:22:57;10.20;;;7.57;;
65230;SDS011;51813;40.666;16.602;2023-08-17T11:25:25;7.82;;;7.03;;
65230;SDS011;51813;40.666;16.602;2023-08-17T11:27:52;9.13;;;7.82;;
65230;SDS011;51813;40.666;16.602;2023-08-17T11:30:20;8.23;;;7.30;;
65230;SDS011;51813;40.666;16.602;2023-08-17T11:32:48;8.32;;;7.30;;
65230;SDS011;51813;40.666;16.602;2023-08-17T11:35:15;9.25;;;7.53;;
65230;SDS011;51813;40.666;16.602;2023-08-17T11:37:41;8.30;;;7.50;;
65230;SDS011;51813;40.666;16.602;2023-08-17T11:40:06;7.68;;;6.88;;
65230;SDS011;51813;40.666;16.602;2023-08-17T11:42:35;8.23;;;6.95;;
65230;SDS011;51813;40.666;16.602;2023-08-17T11:45:01;7.95;;;7.15;;
65230;SDS011;51813;40.666;16.602;2023-08-17T11:47:27;11.35;;;6.57;;
65230;SDS011;51813;40.666;16.602;2023-08-17T11:49:58;8.25;;;6.53;;
65230;SDS011;51813;40.666;16.602;2023-08-17T11:52:28;8.35;;;7.13;;
65230;SDS011;51813;40.666;16.602;2023-08-17T11:54:55;8.13;;;7.28;;
65230;SDS011;51813;40.666;16.602;2023-08-17T11:57:21;8.23;;;7.18;;
65230;SDS011;51813;40.666;16.602;2023-08-17T11:59:47;9.07;;;6.90;;
65230;SDS011;51813;40.666;16.602;2023-08-17T12:02:13;8.70;;;6.70;;
65230;SDS011;51813;40.666;16.602;2023-08-17T12:04:38;8.18;;;6.97;;
65230;SDS011;51813;40.666;16.602;2023-08-17T12:07:05;7.32;;;6.63;;
65230;SDS011;51813;40.666;16.602;2023-08-17T12:09:34;8.43;;;6.75;;
65230;SDS011;51813;40.666;16.602;2023-08-17T12:12:00;7.55;;;6.75;;
65230;SDS011;51813;40.666;16.602;2023-08-17T12:14:29;7.90;;;6.93;;
65230;SDS011;51813;40.666;16.602;2023-08-17T12:16:55;7.75;;;6.88;;
65230;SDS011;51813;40.666;16.602;2023-08-17T12:19:24;8.55;;;7.05;;
65230;SDS011;51813;40.666;16.602;2023-08-17T12:21:50;8.52;;;6.63;;
65230;SDS011;51813;40.666;16.602;2023-08-17T12:24:16;9.30;;;7.10;;
65230;SDS011;51813;40.666;16.602;2023-08-17T12:26:44;9.55;;;6.88;;
65230;SDS011;51813;40.666;16.602;2023-08-17T12:29:13;6.90;;;6.25;;
65230;SDS011;51813;40.666;16.602;2023-08-17T12:31:39;7.15;;;6.28;;
65230;SDS011;51813;40.666;16.602;2023-08-17T12:34:05;7.53;;;6.38;;
65230;SDS011;51813;40.666;16.602;2023-08-17T12:36:31;7.97;;;6.15;;
65230;SDS011;51813;40.666;16.602;2023-08-17T12:38:57;8.55;;;6.35;;
65230;SDS011;51813;40.666;16.602;2023-08-17T12:41:23;6.53;;;5.70;;
65230;SDS011;51813;40.666;16.602;2023-08-17T12:43:49;15.60;;;6.82;;
65230;SDS011;51813;40.666;16.602;2023-08-17T12:46:15;10.13;;;6.50;;
65230;SDS011;51813;40.666;16.602;2023-08-17T12:48:40;7.57;;;6.35;;
65230;SDS011;51813;40.666;16.602;2023-08-17T12:51:06;7.22;;;6.47;;
65230;SDS011;51813;40.666;16.602;2023-08-17T12:53:32;9.35;;;6.40;;
65230;SDS011;51813;40.666;16.602;2023-08-17T12:55:57;8.95;;;6.57;;
65230;SDS011;51813;40.666;16.602;2023-08-17T12:58:23;8.27;;;6.10;;
65230;SDS011;51813;40.666;16.602;2023-08-17T13:00:49;9.07;;;6.53;;
65230;SDS011;51813;40.666;16.602;2023-08-17T13:03:18;7.20;;;6.50;;
65230;SDS011;51813;40.666;16.602;2023-08-17T13:05:43;6.85;;;5.90;;
65230;SDS011;51813;40.666;16.602;2023-08-17T13:08:09;9.70;;;6.22;;
65230;SDS011;51813;40.666;16.602;2023-08-17T13:10:36;10.18;;;6.28;;
65230;SDS011;51813;40.666;16.602;2023-08-17T13:13:02;8.32;;;6.32;;
65230;SDS011;51813;40.666;16.602;2023-08-17T13:15:28;6.90;;;6.20;;
65230;SDS011;51813;40.666;16.602;2023-08-17T13:17:54;6.80;;;6.10;;
65230;SDS011;51813;40.666;16.602;2023-08-17T13:20:20;7.00;;;6.30;;
65230;SDS011;51813;40.666;16.602;2023-08-17T13:22:46;7.40;;;6.57;;
65230;SDS011;51813;40.666;16.602;2023-08-17T13:25:11;7.53;;;6.45;;
65230;SDS011;51813;40.666;16.602;2023-08-17T13:27:37;10.05;;;6.95;;
65230;SDS011;51813;40.666;16.602;2023-08-17T13:30:03;8.38;;;6.90;;
65230;SDS011;51813;40.666;16.602;2023-08-17T13:32:29;8.13;;;7.20;;
65230;SDS011;51813;40.666;16.602;2023-08-17T13:34:55;8.20;;;7.40;;
65230;SDS011;51813;40.666;16.602;2023-08-17T13:37:20;7.15;;;6.45;;
65230;SDS011;51813;40.666;16.602;2023-08-17T13:39:47;7.88;;;6.80;;
65230;SDS011;51813;40.666;16.602;2023-08-17T13:42:12;8.60;;;7.70;;
65230;SDS011;51813;40.666;16.602;2023-08-17T13:44:39;8.57;;;7.65;;
65230;SDS011;51813;40.666;16.602;2023-08-17T13:47:05;8.38;;;7.25;;
65230;SDS011;51813;40.666;16.602;2023-08-17T13:49:30;9.45;;;8.45;;
65230;SDS011;51813;40.666;16.602;2023-08-17T13:51:56;9.93;;;8.27;;
65230;SDS011;51813;40.666;16.602;2023-08-17T13:54:22;10.43;;;8.27;;
65230;SDS011;51813;40.666;16.602;2023-08-17T13:56:48;9.50;;;8.50;;
65230;SDS011;51813;40.666;16.602;2023-08-17T13:59:14;9.80;;;8.82;;
65230;SDS011;51813;40.666;16.602;2023-08-17T14:01:40;10.20;;;9.20;;
65230;SDS011;51813;40.666;16.602;2023-08-17T14:04:06;9.52;;;8.52;;
65230;SDS011;51813;40.666;16.602;2023-08-17T14:06:36;10.80;;;8.85;;
65230;SDS011;51813;40.666;16.602;2023-08-17T14:09:02;12.35;;;9.13;;
65230;SDS011;51813;40.666;16.602;2023-08-17T14:11:29;9.82;;;8.82;;
65230;SDS011;51813;40.666;16.602;2023-08-17T14:13:54;9.20;;;8.20;;
65230;SDS011;51813;40.666;16.602;2023-08-17T14:16:20;9.93;;;8.93;;
65230;SDS011;51813;40.666;16.602;2023-08-17T14:18:46;10.20;;;9.18;;
65230;SDS011;51813;40.666;16.602;2023-08-17T14:21:12;10.10;;;9.10;;
65230;SDS011;51813;40.666;16.602;2023-08-17T14:23:38;9.80;;;8.80;;
65230;SDS011;51813;40.666;16.602;2023-08-17T14:26:04;10.25;;;9.25;;
65230;SDS011;51813;40.666;16.602;2023-08-17T14:28:29;10.32;;;9.18;;
65230;SDS011;51813;40.666;16.602;2023-08-17T14:30:55;11.32;;;9.60;;
65230;SDS011;51813;40.666;16.602;2023-08-17T14:33:21;10.13;;;9.13;;
65230;SDS011;51813;40.666;16.602;2023-08-17T14:35:47;10.02;;;8.80;;